Lady Ann Magee — 9HA2775 — position and weather

sailwx.info

Track history (hours):
 
Tides and Currents Weather Stations Pressure Air Temp Water Temp Dewpoint Dewpoint Depression Visibility Wind Speed Wind Dir Waves Ship Positions

Lady Ann Magee

Last reported at 2017-Jan-21 12:31 UTC. Time now 2017-Jan-22 14:22 UTC.
Position N 18°02' W 063°06'.

Length 49 m; draft 3.4 m.

Type: Pleasure craft. MMSI: 215660000.

Date/timePositionNaut miles runAvg speedWind from/ knotsBaromVisibWave heightAir tempDewpointWater temp
2017-Jan-21 12:31N 18°02' W 063°06'0 0.1
2017-Jan-21 11:19N 18°02' W 063°06'0 0.0
2017-Jan-21 10:22N 18°02' W 063°06'0 0.0
2017-Jan-21 09:31N 18°02' W 063°06'0 0.0
2017-Jan-21 08:22N 18°02' W 063°06'0 0.0
2017-Jan-21 07:25N 18°02' W 063°06'0 0.0
2017-Jan-21 06:25N 18°02' W 063°06'0 0.0
2017-Jan-21 05:22N 18°02' W 063°06'0 0.0
2017-Jan-21 04:28N 18°02' W 063°06'0 0.0
2017-Jan-21 03:25N 18°02' W 063°06'0 0.0
2017-Jan-21 02:31N 18°02' W 063°06'0 0.0
2017-Jan-21 01:31N 18°02' W 063°06'0 0.0
2017-Jan-21 00:31N 18°02' W 063°06'0 0.0
2017-Jan-20 23:31N 18°02' W 063°06'0 0.0
2017-Jan-20 22:28N 18°02' W 063°06'0 0.0
2017-Jan-20 21:31N 18°02' W 063°06'0 0.0
2017-Jan-20 20:31N 18°02' W 063°06'0 0.0
2017-Jan-20 19:22N 18°02' W 063°06'0 0.0
2017-Jan-20 18:26N 18°02' W 063°06'0 0.0
2017-Jan-20 17:25N 18°02' W 063°06'0 0.0
2017-Jan-20 16:25N 18°02' W 063°06'0 0.2
2017-Jan-20 15:32N 18°02' W 063°06'7 7.2
2017-Jan-20 14:31N 17°55' W 063°05'7712.0
2017-Jan-20 08:04N 16°47' W 062°26'713.6
2017-Jan-20 07:34N 16°41' W 062°22'1413.8
2017-Jan-20 06:34N 16°30' W 062°13'4213.8
2017-Jan-20 03:31N 15°57' W 061°46'24 3.0
2017-Jan-19 19:25N 15°35' W 061°37'  
2017-Jan-15 01:27N 15°45' W 061°40'1511.0
2017-Jan-15 00:06N 15°58' W 061°46'611.1
2017-Jan-14 23:33N 16°04' W 061°48'1110.9
2017-Jan-14 22:33N 16°14' W 061°51'1211.6
2017-Jan-14 21:32N 16°26' W 061°50'1111.4
2017-Jan-14 20:33N 16°37' W 061°49'1111.5
2017-Jan-14 19:33N 16°48' W 061°47'1211.5
2017-Jan-14 18:34N 16°60' W 061°46'1 0.5
2017-Jan-14 17:33N 17°00' W 061°46'0 0.0
2017-Jan-14 16:33N 17°01' W 061°46'0 0.0
2017-Jan-14 15:33N 17°01' W 061°46'0 0.0
2017-Jan-14 14:33N 17°01' W 061°46'0 0.0
2017-Jan-14 13:33N 17°01' W 061°46'0 0.0
2017-Jan-14 12:33N 17°01' W 061°46'0 0.0
2017-Jan-14 11:33N 17°01' W 061°46'0 0.0
2017-Jan-14 10:33N 17°01' W 061°46'0 0.0
2017-Jan-14 09:33N 17°01' W 061°46'0 0.0
2017-Jan-14 08:33N 17°01' W 061°46'0 0.0
2017-Jan-14 07:33N 17°00' W 061°46'0 0.0
2017-Jan-14 06:33N 17°01' W 061°46'0 0.0
2017-Jan-14 05:33N 17°01' W 061°46'0 0.0
2017-Jan-14 04:30N 17°01' W 061°46'0 0.0
2017-Jan-14 03:33N 17°01' W 061°46'0 0.0
2017-Jan-13 23:33N 17°01' W 061°46'0 0.0
2017-Jan-13 22:33N 17°01' W 061°46'0 0.0
2017-Jan-13 21:33N 17°01' W 061°46'0 0.0
2017-Jan-13 20:30N 17°01' W 061°46'0 0.0
2017-Jan-13 19:33N 17°01' W 061°46'0 0.0
2017-Jan-13 18:33N 17°01' W 061°46'0 0.0
2017-Jan-13 17:33N 17°01' W 061°46'0 0.0
2017-Jan-13 16:33N 17°01' W 061°46'0 0.0
2017-Jan-13 15:33N 17°01' W 061°46'0 0.0
2017-Jan-13 14:33N 17°01' W 061°46'0 0.0
2017-Jan-13 13:33N 17°01' W 061°46'0 0.0
2017-Jan-13 12:33N 17°01' W 061°46'0 0.0
2017-Jan-13 11:33N 17°01' W 061°46'0 0.0
2017-Jan-13 10:30N 17°01' W 061°46'0 0.0
2017-Jan-13 09:33N 17°01' W 061°46'0 0.0
2017-Jan-13 08:33N 17°01' W 061°46'0 0.0
2017-Jan-13 07:30N 17°01' W 061°46'0 0.0
2017-Jan-13 06:33N 17°01' W 061°46'0 0.0
2017-Jan-13 05:27N 17°01' W 061°46'0 0.0
2017-Jan-13 04:33N 17°01' W 061°46'0 0.0
2017-Jan-13 03:30N 17°01' W 061°46'0 0.0
2017-Jan-13 02:33N 17°01' W 061°46'0 0.0
2017-Jan-13 01:27N 17°01' W 061°46'0 0.0
2017-Jan-13 00:33N 17°01' W 061°46'0 0.0
2017-Jan-12 23:33N 17°01' W 061°46'0 0.0
2017-Jan-12 22:33N 17°01' W 061°46'0 0.0
2017-Jan-12 21:33N 17°01' W 061°46'0 0.0
2017-Jan-12 20:33N 17°01' W 061°46'0 0.0
2017-Jan-12 19:33N 17°01' W 061°46'0 0.0
2017-Jan-12 18:33N 17°01' W 061°46'0 0.0
2017-Jan-12 17:33N 17°01' W 061°46'0 0.0
2017-Jan-12 16:33N 17°01' W 061°46'0 0.0
2017-Jan-12 15:33N 17°01' W 061°46'0 0.0
2017-Jan-12 14:33N 17°01' W 061°46'0 0.0
2017-Jan-12 13:33N 17°01' W 061°46'0 0.0
2017-Jan-12 12:33N 17°01' W 061°46'0 0.0
2017-Jan-12 11:33N 17°01' W 061°46'0 0.0
2017-Jan-12 10:33N 17°01' W 061°46'0 0.0
2017-Jan-12 09:30N 17°01' W 061°46'0 0.0
2017-Jan-12 08:33N 17°01' W 061°46'0 0.0
2017-Jan-12 07:33N 17°01' W 061°46'0 0.0
2017-Jan-12 06:33N 17°01' W 061°46'0 0.0
2017-Jan-12 05:33N 17°01' W 061°46'0 0.0
2017-Jan-12 04:33N 17°01' W 061°46'0 0.0
2017-Jan-12 03:33N 17°01' W 061°46'0 0.0
2017-Jan-12 02:33N 17°01' W 061°46'0 0.0
2017-Jan-12 01:33N 17°01' W 061°46'0 0.0
2017-Jan-12 00:33N 17°01' W 061°46'0 0.0
2017-Jan-11 23:33N 17°01' W 061°46'0 0.0
2017-Jan-11 22:33N 17°01' W 061°46'0 0.0
2017-Jan-11 21:33N 17°01' W 061°46'0 0.0
2017-Jan-11 20:33N 17°01' W 061°46'0 0.0
2017-Jan-11 19:33N 17°01' W 061°46'0 0.0
2017-Jan-11 18:33N 17°01' W 061°46'0 0.0
2017-Jan-11 17:33N 17°01' W 061°46'0 0.0
2017-Jan-11 16:33N 17°01' W 061°46'0 0.0
2017-Jan-11 15:33N 17°01' W 061°46'0 0.0
2017-Jan-11 14:33N 17°01' W 061°46'0 0.0
2017-Jan-11 13:33N 17°01' W 061°46'0 0.0
2017-Jan-11 12:33N 17°01' W 061°46'  
Track history (hours):
 
Tides and Currents Weather Stations Pressure Air Temp Water Temp Dewpoint Dewpoint Depression Visibility Wind Speed Wind Dir Waves Ship Positions

Lady Ann Magee

Last reported at 2017-Jan-21 12:31 UTC. Time now 2017-Jan-22 14:22 UTC.
Position N 18°02' W 063°06'.

Length 49 m; draft 3.4 m.

Type: Pleasure craft. MMSI: 215660000.

Date/timePositionNaut miles runAvg speedWind from/ knotsBaromVisibWave heightAir tempDewpointWater temp
2017-Jan-21 12:31N 18°02' W 063°06'0 0.1
2017-Jan-21 11:19N 18°02' W 063°06'0 0.0
2017-Jan-21 10:22N 18°02' W 063°06'0 0.0
2017-Jan-21 09:31N 18°02' W 063°06'0 0.0
2017-Jan-21 08:22N 18°02' W 063°06'0 0.0
2017-Jan-21 07:25N 18°02' W 063°06'0 0.0
2017-Jan-21 06:25N 18°02' W 063°06'0 0.0
2017-Jan-21 05:22N 18°02' W 063°06'0 0.0
2017-Jan-21 04:28N 18°02' W 063°06'0 0.0
2017-Jan-21 03:25N 18°02' W 063°06'0 0.0
2017-Jan-21 02:31N 18°02' W 063°06'0 0.0
2017-Jan-21 01:31N 18°02' W 063°06'0 0.0
2017-Jan-21 00:31N 18°02' W 063°06'0 0.0
2017-Jan-20 23:31N 18°02' W 063°06'0 0.0
2017-Jan-20 22:28N 18°02' W 063°06'0 0.0
2017-Jan-20 21:31N 18°02' W 063°06'0 0.0
2017-Jan-20 20:31N 18°02' W 063°06'0 0.0
2017-Jan-20 19:22N 18°02' W 063°06'0 0.0
2017-Jan-20 18:26N 18°02' W 063°06'0 0.0
2017-Jan-20 17:25N 18°02' W 063°06'0 0.0
2017-Jan-20 16:25N 18°02' W 063°06'0 0.2
2017-Jan-20 15:32N 18°02' W 063°06'7 7.2
2017-Jan-20 14:31N 17°55' W 063°05'7712.0
2017-Jan-20 08:04N 16°47' W 062°26'713.6
2017-Jan-20 07:34N 16°41' W 062°22'1413.8
2017-Jan-20 06:34N 16°30' W 062°13'4213.8
2017-Jan-20 03:31N 15°57' W 061°46'24 3.0
2017-Jan-19 19:25N 15°35' W 061°37'  
2017-Jan-15 01:27N 15°45' W 061°40'1511.0
2017-Jan-15 00:06N 15°58' W 061°46'611.1
2017-Jan-14 23:33N 16°04' W 061°48'1110.9
2017-Jan-14 22:33N 16°14' W 061°51'1211.6
2017-Jan-14 21:32N 16°26' W 061°50'1111.4
2017-Jan-14 20:33N 16°37' W 061°49'1111.5
2017-Jan-14 19:33N 16°48' W 061°47'1211.5
2017-Jan-14 18:34N 16°60' W 061°46'1 0.5
2017-Jan-14 17:33N 17°00' W 061°46'0 0.0
2017-Jan-14 16:33N 17°01' W 061°46'0 0.0
2017-Jan-14 15:33N 17°01' W 061°46'0 0.0
2017-Jan-14 14:33N 17°01' W 061°46'0 0.0
2017-Jan-14 13:33N 17°01' W 061°46'0 0.0
2017-Jan-14 12:33N 17°01' W 061°46'0 0.0
2017-Jan-14 11:33N 17°01' W 061°46'0 0.0
2017-Jan-14 10:33N 17°01' W 061°46'0 0.0
2017-Jan-14 09:33N 17°01' W 061°46'0 0.0
2017-Jan-14 08:33N 17°01' W 061°46'0 0.0
2017-Jan-14 07:33N 17°00' W 061°46'0 0.0
2017-Jan-14 06:33N 17°01' W 061°46'0 0.0
2017-Jan-14 05:33N 17°01' W 061°46'0 0.0
2017-Jan-14 04:30N 17°01' W 061°46'0 0.0
2017-Jan-14 03:33N 17°01' W 061°46'0 0.0
2017-Jan-13 23:33N 17°01' W 061°46'0 0.0
2017-Jan-13 22:33N 17°01' W 061°46'0 0.0
2017-Jan-13 21:33N 17°01' W 061°46'0 0.0
2017-Jan-13 20:30N 17°01' W 061°46'0 0.0
2017-Jan-13 19:33N 17°01' W 061°46'0 0.0
2017-Jan-13 18:33N 17°01' W 061°46'0 0.0
2017-Jan-13 17:33N 17°01' W 061°46'0 0.0
2017-Jan-13 16:33N 17°01' W 061°46'0 0.0
2017-Jan-13 15:33N 17°01' W 061°46'0 0.0
2017-Jan-13 14:33N 17°01' W 061°46'0 0.0
2017-Jan-13 13:33N 17°01' W 061°46'0 0.0
2017-Jan-13 12:33N 17°01' W 061°46'0 0.0
2017-Jan-13 11:33N 17°01' W 061°46'0 0.0
2017-Jan-13 10:30N 17°01' W 061°46'0 0.0
2017-Jan-13 09:33N 17°01' W 061°46'0 0.0
2017-Jan-13 08:33N 17°01' W 061°46'0 0.0
2017-Jan-13 07:30N 17°01' W 061°46'0 0.0
2017-Jan-13 06:33N 17°01' W 061°46'0 0.0
2017-Jan-13 05:27N 17°01' W 061°46'0 0.0
2017-Jan-13 04:33N 17°01' W 061°46'0 0.0
2017-Jan-13 03:30N 17°01' W 061°46'0 0.0
2017-Jan-13 02:33N 17°01' W 061°46'0 0.0
2017-Jan-13 01:27N 17°01' W 061°46'0 0.0
2017-Jan-13 00:33N 17°01' W 061°46'0 0.0
2017-Jan-12 23:33N 17°01' W 061°46'0 0.0
2017-Jan-12 22:33N 17°01' W 061°46'0 0.0
2017-Jan-12 21:33N 17°01' W 061°46'0 0.0
2017-Jan-12 20:33N 17°01' W 061°46'0 0.0
2017-Jan-12 19:33N 17°01' W 061°46'0 0.0
2017-Jan-12 18:33N 17°01' W 061°46'0 0.0
2017-Jan-12 17:33N 17°01' W 061°46'0 0.0
2017-Jan-12 16:33N 17°01' W 061°46'0 0.0
2017-Jan-12 15:33N 17°01' W 061°46'0 0.0
2017-Jan-12 14:33N 17°01' W 061°46'0 0.0
2017-Jan-12 13:33N 17°01' W 061°46'0 0.0
2017-Jan-12 12:33N 17°01' W 061°46'0 0.0
2017-Jan-12 11:33N 17°01' W 061°46'0 0.0
2017-Jan-12 10:33N 17°01' W 061°46'0 0.0
2017-Jan-12 09:30N 17°01' W 061°46'0 0.0
2017-Jan-12 08:33N 17°01' W 061°46'0 0.0
2017-Jan-12 07:33N 17°01' W 061°46'0 0.0
2017-Jan-12 06:33N 17°01' W 061°46'0 0.0
2017-Jan-12 05:33N 17°01' W 061°46'0 0.0
2017-Jan-12 04:33N 17°01' W 061°46'0 0.0
2017-Jan-12 03:33N 17°01' W 061°46'0 0.0
2017-Jan-12 02:33N 17°01' W 061°46'0 0.0
2017-Jan-12 01:33N 17°01' W 061°46'0 0.0
2017-Jan-12 00:33N 17°01' W 061°46'0 0.0
2017-Jan-11 23:33N 17°01' W 061°46'0 0.0
2017-Jan-11 22:33N 17°01' W 061°46'0 0.0
2017-Jan-11 21:33N 17°01' W 061°46'0 0.0
2017-Jan-11 20:33N 17°01' W 061°46'0 0.0
2017-Jan-11 19:33N 17°01' W 061°46'0 0.0
2017-Jan-11 18:33N 17°01' W 061°46'0 0.0
2017-Jan-11 17:33N 17°01' W 061°46'0 0.0
2017-Jan-11 16:33N 17°01' W 061°46'0 0.0
2017-Jan-11 15:33N 17°01' W 061°46'0 0.0
2017-Jan-11 14:33N 17°01' W 061°46'0 0.0
2017-Jan-11 13:33N 17°01' W 061°46'0 0.0
2017-Jan-11 12:33N 17°01' W 061°46'  

Dump ship's entire track history